createdAt,value
2018-05-03T00:02:10.561Z,11.27
2018-05-03T00:05:16.525Z,10.07
2018-05-03T00:08:22.676Z,11.13
2018-05-03T00:11:28.757Z,9.77
2018-05-03T00:14:34.025Z,10.70
2018-05-03T00:17:40.115Z,10.60
2018-05-03T00:20:46.412Z,10.57
2018-05-03T00:23:53.161Z,11.60
2018-05-03T00:26:59.118Z,11.50
2018-05-03T00:30:05.142Z,10.37
2018-05-03T00:33:11.111Z,11.13
2018-05-03T00:36:17.077Z,12.13
2018-05-03T00:39:23.459Z,9.93
2018-05-03T00:42:29.433Z,10.50
2018-05-03T00:45:35.390Z,10.33
2018-05-03T00:48:41.516Z,10.90
2018-05-03T00:51:48.683Z,10.40
2018-05-03T00:55:03.803Z,10.00
2018-05-03T00:58:10.097Z,10.97
2018-05-03T01:01:16.095Z,11.33
2018-05-03T01:04:22.059Z,10.90
2018-05-03T01:07:27.905Z,11.23
2018-05-03T01:10:33.865Z,10.67
2018-05-03T01:13:39.145Z,11.00
2018-05-03T01:16:45.286Z,10.30
2018-05-03T01:19:51.239Z,12.43
2018-05-03T01:22:57.548Z,10.50
2018-05-03T01:26:03.552Z,10.10
2018-05-03T01:29:09.675Z,10.50
2018-05-03T01:32:15.619Z,10.80
2018-05-03T01:35:33.799Z,10.43
2018-05-03T01:38:39.287Z,10.40
2018-05-03T01:41:45.264Z,10.00
2018-05-03T01:44:51.441Z,10.53
2018-05-03T01:47:57.575Z,10.60
2018-05-03T01:51:03.568Z,11.00
2018-05-03T01:54:15.505Z,10.53
2018-05-03T01:57:21.649Z,10.57
2018-05-03T02:00:27.784Z,10.87
2018-05-03T02:03:33.989Z,10.63
2018-05-03T02:06:39.882Z,10.23
2018-05-03T02:09:46.019Z,10.83
2018-05-03T02:12:52.021Z,10.60
2018-05-03T02:15:58.126Z,9.80
2018-05-03T02:19:03.416Z,9.80
2018-05-03T02:22:09.557Z,10.83
2018-05-03T02:25:15.365Z,10.53
2018-05-03T02:28:21.374Z,10.27
2018-05-03T02:31:27.250Z,10.50
2018-05-03T02:34:33.290Z,10.00
2018-05-03T02:37:39.457Z,9.37
2018-05-03T02:40:45.439Z,8.87
2018-05-03T02:43:51.455Z,10.20
2018-05-03T02:46:57.799Z,9.43
2018-05-03T02:50:03.766Z,10.10
2018-05-03T02:53:09.874Z,9.30
2018-05-03T02:56:15.824Z,9.47
2018-05-03T02:59:33.313Z,9.50
2018-05-03T03:02:44.999Z,9.90
2018-05-03T03:06:03.451Z,10.40
2018-05-03T03:17:19.893Z,9.87
2018-05-03T03:20:43.664Z,9.57
2018-05-03T03:24:07.311Z,10.03
2018-05-03T03:27:30.781Z,9.20
2018-05-03T03:30:54.007Z,9.00
2018-05-03T03:34:28.049Z,10.13
2018-05-03T03:37:55.027Z,9.00
2018-05-03T03:41:12.529Z,9.37
2018-05-03T03:44:29.935Z,8.33
2018-05-03T03:47:35.363Z,9.70
2018-05-03T03:50:41.252Z,8.57
2018-05-03T03:53:47.208Z,8.77
2018-05-03T03:56:53.139Z,9.43
2018-05-03T03:59:58.928Z,9.13
2018-05-03T04:03:06.100Z,9.50
2018-05-03T04:06:12.099Z,8.80
2018-05-03T04:09:17.955Z,10.17
2018-05-03T04:12:24.169Z,9.97
2018-05-03T04:15:30.111Z,8.20
2018-05-03T04:18:48.258Z,10.30
2018-05-03T04:22:06.423Z,9.23
2018-05-03T04:25:25.101Z,9.27
2018-05-03T04:28:30.913Z,9.10
2018-05-03T04:31:36.984Z,9.13
2018-05-03T04:34:42.810Z,9.17
2018-05-03T04:37:48.868Z,9.20
2018-05-03T04:40:54.898Z,9.90
2018-05-03T04:44:00.949Z,9.33
2018-05-03T04:47:07.115Z,9.03
2018-05-03T04:50:13.110Z,9.13
2018-05-03T04:53:18.955Z,9.70
2018-05-03T04:56:25.073Z,10.13
2018-05-03T04:59:31.077Z,8.40
2018-05-03T05:02:38.064Z,9.57
2018-05-03T05:05:43.942Z,9.20
2018-05-03T05:08:49.946Z,9.43
2018-05-03T05:11:55.941Z,9.00
2018-05-03T05:15:01.978Z,9.07
2018-05-03T05:18:07.831Z,8.27
2018-05-03T05:21:13.841Z,7.83
2018-05-03T05:24:19.866Z,8.80
2018-05-03T05:27:26.014Z,8.13
2018-05-03T05:30:31.990Z,9.33
2018-05-03T05:33:38.248Z,8.70
2018-05-03T05:36:44.046Z,8.87
2018-05-03T05:39:50.106Z,9.03
2018-05-03T05:42:56.084Z,9.70
2018-05-03T05:46:02.195Z,9.43
2018-05-03T05:49:09.240Z,8.60
2018-05-03T05:52:15.277Z,8.63
2018-05-03T05:55:22.551Z,8.80
2018-05-03T05:58:29.553Z,9.07
2018-05-03T06:01:35.484Z,8.70
2018-05-03T06:04:42.468Z,8.90
2018-05-03T06:07:50.784Z,10.17
2018-05-03T06:10:57.326Z,9.60
2018-05-03T06:14:03.344Z,9.10
2018-05-03T06:17:09.494Z,8.87
2018-05-03T06:20:15.513Z,8.70
2018-05-03T06:23:21.664Z,8.73
2018-05-03T06:26:28.732Z,8.00
2018-05-03T06:29:35.562Z,8.00
2018-05-03T06:32:41.626Z,7.17
2018-05-03T06:35:49.585Z,6.50
2018-05-03T06:38:55.493Z,6.67
2018-05-03T06:42:02.729Z,6.97
2018-05-03T06:45:09.650Z,6.83
2018-05-03T06:48:16.409Z,6.40
2018-05-03T06:51:22.150Z,6.23
2018-05-03T06:54:28.151Z,5.60
2018-05-03T06:57:34.161Z,5.83
2018-05-03T07:00:40.204Z,5.40
2018-05-03T07:03:46.176Z,5.73
2018-05-03T07:06:53.205Z,6.87
2018-05-03T07:09:59.237Z,5.97
2018-05-03T07:13:05.042Z,5.80
2018-05-03T07:16:11.935Z,5.23
2018-05-03T07:19:18.103Z,5.70
2018-05-03T07:22:24.077Z,5.83
2018-05-03T07:25:30.063Z,6.17
2018-05-03T07:28:35.957Z,5.57
2018-05-03T07:31:42.205Z,5.93
2018-05-03T07:34:48.293Z,5.90
2018-05-03T07:37:54.304Z,5.90
2018-05-03T07:41:00.299Z,6.07
2018-05-03T07:44:06.192Z,5.83
2018-05-03T07:47:19.122Z,5.60
2018-05-03T07:50:25.175Z,5.90
2018-05-03T07:53:31.126Z,5.70
2018-05-03T07:56:37.001Z,5.60
2018-05-03T07:59:42.887Z,5.33
2018-05-03T08:02:48.794Z,5.83
2018-05-03T08:05:55.092Z,6.00
2018-05-03T08:09:01.127Z,5.10
2018-05-03T08:12:07.995Z,5.13
2018-05-03T08:15:13.706Z,5.20
2018-05-03T08:18:19.957Z,4.63
2018-05-03T08:21:25.646Z,4.60
2018-05-03T08:24:31.803Z,5.10
2018-05-03T08:27:37.635Z,5.33
2018-05-03T08:30:44.623Z,4.93
2018-05-03T08:33:50.817Z,4.80
2018-05-03T08:36:57.042Z,4.80
2018-05-03T08:40:02.882Z,4.93
2018-05-03T08:43:09.038Z,5.27
2018-05-03T08:46:14.963Z,5.30
2018-05-03T08:49:21.075Z,5.57
2018-05-03T08:52:28.142Z,5.70
2018-05-03T08:55:33.401Z,4.93
2018-05-03T08:58:38.802Z,4.90
2018-05-03T09:01:45.116Z,5.30
2018-05-03T09:04:50.984Z,4.90
2018-05-03T09:07:56.860Z,5.00
2018-05-03T09:11:03.036Z,4.50
2018-05-03T09:14:09.894Z,5.47
2018-05-03T09:17:16.253Z,5.40
2018-05-03T09:20:22.305Z,5.70
2018-05-03T09:23:28.367Z,5.63
2018-05-03T09:26:34.473Z,4.60
2018-05-03T09:29:40.751Z,4.83
2018-05-03T09:32:46.793Z,5.43
2018-05-03T09:35:51.983Z,5.70
2018-05-03T09:38:58.176Z,4.67
2018-05-03T09:42:04.183Z,5.60
2018-05-03T09:45:10.265Z,6.57
2018-05-03T09:48:16.279Z,5.37
2018-05-03T09:51:22.350Z,6.13
2018-05-03T09:54:29.199Z,5.20
2018-05-03T09:57:35.995Z,5.70
2018-05-03T10:00:42.294Z,5.60
2018-05-03T10:03:48.592Z,6.07
2018-05-03T10:06:54.628Z,5.70
2018-05-03T10:10:00.706Z,5.90
2018-05-03T10:13:06.618Z,5.60
2018-05-03T10:16:12.842Z,5.90
2018-05-03T10:19:19.079Z,5.20
2018-05-03T10:22:25.281Z,6.10
2018-05-03T10:25:31.433Z,6.47
2018-05-03T10:28:37.308Z,5.93
2018-05-03T10:31:44.358Z,6.63
2018-05-03T10:34:50.388Z,6.70
2018-05-03T10:37:56.420Z,6.60
2018-05-03T10:41:03.431Z,6.63
2018-05-03T10:44:08.938Z,6.60
2018-05-03T10:47:14.854Z,7.00
2018-05-03T10:50:20.988Z,6.97
2018-05-03T10:53:27.175Z,6.77
2018-05-03T10:56:33.380Z,6.90
2018-05-03T10:59:39.543Z,6.33
2018-05-03T11:02:45.760Z,7.10
2018-05-03T11:05:51.757Z,6.73
2018-05-03T11:08:57.653Z,7.23
2018-05-03T11:12:03.612Z,7.27
2018-05-03T11:15:09.499Z,7.10
2018-05-03T11:18:16.223Z,7.03
2018-05-03T11:21:22.302Z,8.27
2018-05-03T11:24:27.670Z,7.20
2018-05-03T11:27:33.825Z,6.40
2018-05-03T11:30:39.123Z,7.40
2018-05-03T11:33:45.572Z,7.20
2018-05-03T11:36:51.765Z,7.33
2018-05-03T11:39:57.856Z,7.00
2018-05-03T11:43:04.043Z,7.83
2018-05-03T11:46:10.183Z,7.80
2018-05-03T11:49:17.334Z,8.60
2018-05-03T11:52:24.182Z,8.40
2018-05-03T11:55:30.373Z,7.80
2018-05-03T11:58:36.208Z,7.70
2018-05-03T12:01:42.241Z,8.70
2018-05-03T12:04:48.290Z,7.70
2018-05-03T12:07:54.391Z,7.90
2018-05-03T12:11:00.320Z,7.50
2018-05-03T12:14:06.270Z,7.67
2018-05-03T12:17:12.255Z,7.03
2018-05-03T12:20:19.292Z,8.57
2018-05-03T12:23:25.257Z,7.83
2018-05-03T12:26:32.266Z,7.90
2018-05-03T12:29:38.281Z,7.70
2018-05-03T12:32:44.150Z,7.53
2018-05-03T12:35:50.290Z,8.20
2018-05-03T12:38:56.458Z,7.50
2018-05-03T12:42:03.403Z,7.63
2018-05-03T12:45:09.325Z,7.60
2018-05-03T12:48:15.361Z,7.50
2018-05-03T12:51:21.293Z,7.27
2018-05-03T12:54:27.277Z,8.50
2018-05-03T12:57:33.388Z,8.07
2018-05-03T13:00:39.457Z,7.90
2018-05-03T13:03:54.605Z,7.53
2018-05-03T13:07:01.761Z,8.23
2018-05-03T13:10:07.302Z,7.10
2018-05-03T13:13:12.522Z,7.63
2018-05-03T13:16:18.742Z,7.43
2018-05-03T13:19:25.047Z,7.20
2018-05-03T13:22:31.028Z,7.47
2018-05-03T13:25:37.104Z,8.47
2018-05-03T13:28:43.371Z,7.80
2018-05-03T13:31:49.589Z,8.40
2018-05-03T13:34:55.958Z,8.30
2018-05-03T13:38:01.986Z,8.83
2018-05-03T13:41:07.969Z,8.60
2018-05-03T13:44:14.032Z,8.20
2018-05-03T13:47:20.221Z,8.33
2018-05-03T13:50:26.182Z,9.10
2018-05-03T13:53:32.405Z,9.33
2018-05-03T13:56:38.539Z,9.53
2018-05-03T13:59:44.713Z,9.43
2018-05-03T14:02:50.698Z,8.57
2018-05-03T14:05:57.030Z,8.63
2018-05-03T14:09:03.250Z,8.93
2018-05-03T14:12:09.106Z,9.23
2018-05-03T14:15:15.299Z,8.97
2018-05-03T14:18:21.224Z,9.07
2018-05-03T14:21:27.445Z,9.10
2018-05-03T14:24:33.671Z,8.10
2018-05-03T14:27:39.802Z,8.90
2018-05-03T14:30:46.803Z,9.27
2018-05-03T14:33:52.811Z,8.80
2018-05-03T14:36:58.979Z,9.37
2018-05-03T14:40:05.239Z,9.57
2018-05-03T14:43:11.164Z,8.83
2018-05-03T14:46:17.086Z,8.93
2018-05-03T14:49:23.355Z,8.93
2018-05-03T14:52:29.207Z,9.50
2018-05-03T14:55:35.492Z,8.70
2018-05-03T14:58:41.741Z,8.93
2018-05-03T15:01:49.444Z,9.73
2018-05-03T15:04:56.251Z,9.30
2018-05-03T15:08:02.318Z,9.50
2018-05-03T15:11:08.197Z,10.43
2018-05-03T15:14:14.056Z,8.73
2018-05-03T15:17:20.284Z,8.07
2018-05-03T15:20:26.384Z,9.10
2018-05-03T15:23:32.496Z,9.80
2018-05-03T15:26:38.615Z,9.57
2018-05-03T15:29:44.755Z,9.77
2018-05-03T15:32:51.002Z,10.00
2018-05-03T15:35:56.867Z,11.03
2018-05-03T15:39:03.768Z,9.80
2018-05-03T15:42:09.830Z,10.67
2018-05-03T15:45:15.983Z,11.67
2018-05-03T15:48:21.996Z,11.30
2018-05-03T15:51:28.108Z,10.13
2018-05-03T15:54:34.130Z,9.93
2018-05-03T15:57:40.156Z,10.73
2018-05-03T16:00:46.321Z,10.03
2018-05-03T16:03:52.226Z,10.00
2018-05-03T16:06:57.558Z,10.47
2018-05-03T16:10:03.671Z,11.07
2018-05-03T16:13:11.021Z,10.87
2018-05-03T16:16:16.628Z,10.80
2018-05-03T16:19:22.923Z,10.47
2018-05-03T16:22:29.968Z,11.00
2018-05-03T16:25:35.717Z,10.50
2018-05-03T16:28:41.694Z,10.03
2018-05-03T16:31:47.826Z,10.50
2018-05-03T16:34:54.127Z,10.37
2018-05-03T16:37:59.885Z,11.20
2018-05-03T16:41:05.945Z,9.30
2018-05-03T16:44:12.304Z,10.03
2018-05-03T16:47:19.569Z,10.93
2018-05-03T16:50:25.398Z,10.30
2018-05-03T16:53:31.380Z,9.77
2018-05-03T16:56:38.600Z,9.73
2018-05-03T16:59:44.571Z,9.27
2018-05-03T17:02:50.701Z,9.80
2018-05-03T17:05:57.680Z,10.03
2018-05-03T17:09:03.852Z,10.93
2018-05-03T17:12:09.672Z,10.87
2018-05-03T17:15:15.865Z,10.47
2018-05-03T17:18:21.980Z,10.97
2018-05-03T17:21:29.935Z,11.50
2018-05-03T17:24:37.181Z,10.00
2018-05-03T17:27:43.246Z,10.00
2018-05-03T17:30:50.221Z,9.53
2018-05-03T17:33:56.078Z,9.60
2018-05-03T17:37:03.143Z,10.37
2018-05-03T17:40:10.698Z,9.50
2018-05-03T17:43:17.499Z,10.20
2018-05-03T17:46:24.626Z,10.10
2018-05-03T17:49:31.135Z,9.20
2018-05-03T17:52:37.927Z,9.53
2018-05-03T17:55:45.910Z,9.30
2018-05-03T17:58:51.880Z,9.80
2018-05-03T18:01:57.819Z,10.10
2018-05-03T18:05:03.721Z,7.80
2018-05-03T18:08:09.725Z,10.27
2018-05-03T18:11:15.425Z,9.40
2018-05-03T18:14:21.420Z,9.17
2018-05-03T18:17:27.565Z,9.37
2018-05-03T18:20:34.428Z,8.93
2018-05-03T18:23:40.377Z,10.10
2018-05-03T18:26:48.754Z,10.07
2018-05-03T18:29:55.611Z,9.07
2018-05-03T18:33:01.518Z,8.83
2018-05-03T18:36:07.532Z,9.90
2018-05-03T18:39:13.357Z,8.73
2018-05-03T18:42:19.059Z,9.07
2018-05-03T18:45:25.377Z,8.50
2018-05-03T18:48:32.311Z,8.40
2018-05-03T18:51:41.775Z,8.60
2018-05-03T18:54:48.591Z,8.70
2018-05-03T18:57:56.313Z,9.13
2018-05-03T19:01:06.653Z,9.40
2018-05-03T19:04:28.729Z,7.70
2018-05-03T19:07:35.771Z,8.80
2018-05-03T19:10:41.769Z,8.63
2018-05-03T19:13:47.856Z,9.10
2018-05-03T19:16:54.908Z,10.10
2018-05-03T19:20:01.258Z,10.73
2018-05-03T19:23:07.204Z,9.80
2018-05-03T19:26:13.369Z,10.50
2018-05-03T19:29:20.237Z,9.87
2018-05-03T19:32:26.415Z,9.10
2018-05-03T19:35:34.384Z,9.40
2018-05-03T19:38:40.379Z,10.10
2018-05-03T19:41:46.728Z,10.20
2018-05-03T19:44:53.395Z,10.10
2018-05-03T19:47:59.619Z,10.80
2018-05-03T19:51:07.838Z,10.80
2018-05-03T19:54:12.917Z,10.57
2018-05-03T19:57:19.138Z,10.97
2018-05-03T20:00:25.577Z,10.97
2018-05-03T20:03:32.590Z,12.50
2018-05-03T20:06:39.383Z,12.03
2018-05-03T20:09:46.805Z,11.90
2018-05-03T20:12:55.533Z,12.83
2018-05-03T20:16:02.170Z,13.70
2018-05-03T20:19:08.970Z,15.43
2018-05-03T20:22:14.652Z,12.43
2018-05-03T20:25:20.885Z,13.33
2018-05-03T20:28:27.746Z,13.40
2018-05-03T20:31:35.880Z,14.60
2018-05-03T20:34:43.281Z,14.90
2018-05-03T20:37:49.941Z,14.90
2018-05-03T20:40:57.277Z,15.07
2018-05-03T20:44:07.297Z,14.30
2018-05-03T20:47:15.461Z,14.50
2018-05-03T20:50:23.340Z,13.60
2018-05-03T20:53:29.560Z,14.37
2018-05-03T20:56:36.073Z,15.67
2018-05-03T20:59:42.344Z,15.20
2018-05-03T21:02:48.635Z,14.73
2018-05-03T21:05:55.534Z,15.17
2018-05-03T21:09:01.787Z,15.70
2018-05-03T21:12:08.773Z,13.83
2018-05-03T21:15:16.786Z,15.30
2018-05-03T21:18:25.428Z,15.80
2018-05-03T21:21:33.475Z,14.27
2018-05-03T21:24:40.874Z,13.90
2018-05-03T21:27:59.074Z,13.73
2018-05-03T21:31:07.272Z,13.60
2018-05-03T21:34:14.986Z,15.30
2018-05-03T21:37:22.195Z,14.53
2018-05-03T21:40:29.324Z,14.20
2018-05-03T21:43:38.747Z,13.57
2018-05-03T21:46:46.231Z,12.13
2018-05-03T21:49:53.609Z,13.00
2018-05-03T21:53:00.795Z,13.30
2018-05-03T21:56:08.838Z,11.83
2018-05-03T21:59:17.322Z,12.50
2018-05-03T22:02:25.763Z,11.93
2018-05-03T22:05:31.913Z,11.90
2018-05-03T22:08:38.135Z,12.13
2018-05-03T22:11:44.131Z,12.83
2018-05-03T22:14:51.349Z,11.37
2018-05-03T22:17:56.755Z,11.33
2018-05-03T22:21:02.797Z,11.90
2018-05-03T22:24:08.616Z,12.57
2018-05-03T22:27:14.988Z,11.87
2018-05-03T22:30:21.323Z,13.03
2018-05-03T22:33:28.165Z,12.07
2018-05-03T22:36:34.358Z,11.93
2018-05-03T22:39:41.226Z,12.60
2018-05-03T22:42:48.634Z,13.70
2018-05-03T22:45:54.826Z,11.83
2018-05-03T22:49:01.057Z,12.73
2018-05-03T22:52:10.216Z,13.13
2018-05-03T22:55:16.349Z,12.60
2018-05-03T22:58:22.640Z,11.70
2018-05-03T23:01:28.642Z,11.83
2018-05-03T23:04:34.743Z,11.47
2018-05-03T23:07:40.728Z,10.83
2018-05-03T23:10:46.739Z,11.20
2018-05-03T23:13:52.857Z,12.00
2018-05-03T23:16:59.047Z,11.63
2018-05-03T23:20:05.438Z,12.17
2018-05-03T23:23:11.518Z,11.97
2018-05-03T23:26:17.632Z,11.90
2018-05-03T23:29:24.015Z,12.90
2018-05-03T23:32:29.974Z,12.10
2018-05-03T23:35:36.131Z,12.37
2018-05-03T23:38:42.054Z,11.90
2018-05-03T23:41:48.109Z,11.40
2018-05-03T23:44:54.212Z,12.57
2018-05-03T23:48:00.293Z,11.70
2018-05-03T23:51:06.398Z,12.43
2018-05-03T23:54:12.476Z,12.07
2018-05-03T23:57:19.365Z,10.63
